createdAt,value
2016-11-05T00:00:23.461Z,939.28
2016-11-05T00:01:37.134Z,939.25
2016-11-05T00:02:50.168Z,939.23
2016-11-05T00:04:03.729Z,939.33
2016-11-05T00:05:16.772Z,939.31
2016-11-05T00:06:30.471Z,939.32
2016-11-05T00:07:43.569Z,939.32
2016-11-05T00:08:57.167Z,939.32
2016-11-05T00:10:10.777Z,939.31
2016-11-05T00:11:23.255Z,939.3
2016-11-05T00:12:36.764Z,939.34
2016-11-05T00:13:50.366Z,939.34
2016-11-05T00:15:03.938Z,939.34
2016-11-05T00:16:16.924Z,939.29
2016-11-05T00:17:30.508Z,939.32
2016-11-05T00:18:43.780Z,939.35
2016-11-05T00:19:57.402Z,939.35
2016-11-05T00:21:10.909Z,939.36
2016-11-05T00:22:23.220Z,939.41
2016-11-05T00:23:36.744Z,939.35
2016-11-05T00:24:50.335Z,939.38
2016-11-05T00:26:03.922Z,939.32
2016-11-05T00:27:16.462Z,939.36
2016-11-05T00:28:29.746Z,939.34
2016-11-05T00:29:43.386Z,939.32
2016-11-05T00:30:56.996Z,939.31
2016-11-05T00:32:10.508Z,939.33
2016-11-05T00:33:23.509Z,939.34
2016-11-05T00:35:08.177Z,939.31
2016-11-05T00:36:21.203Z,939.36
2016-11-05T00:37:34.792Z,939.28
2016-11-05T00:38:48.577Z,939.27
2016-11-05T00:40:01.618Z,939.28
2016-11-05T00:41:14.889Z,939.28
2016-11-05T00:42:28.421Z,939.27
2016-11-05T00:43:41.451Z,939.23
2016-11-05T00:44:53.928Z,939.27
2016-11-05T00:46:06.959Z,939.26
2016-11-05T00:47:20.531Z,939.3
2016-11-05T00:48:34.179Z,939.31
2016-11-05T00:49:47.920Z,939.28
2016-11-05T00:51:00.938Z,939.28
2016-11-05T00:52:14.061Z,939.26
2016-11-05T00:53:28.015Z,939.28
2016-11-05T00:54:40.829Z,939.32
2016-11-05T00:55:53.889Z,939.34
2016-11-05T00:57:07.410Z,939.37
2016-11-05T00:58:20.458Z,939.37
2016-11-05T00:59:34.154Z,939.36
2016-11-05T01:00:47.387Z,939.38
2016-11-05T01:02:00.913Z,939.39
2016-11-05T01:03:13.968Z,939.37
2016-11-05T01:04:27.598Z,939.4
2016-11-05T01:05:41.094Z,939.48
2016-11-05T01:06:54.928Z,939.42
2016-11-05T01:08:07.956Z,939.44
2016-11-05T01:09:21.817Z,939.46
2016-11-05T01:10:35.184Z,939.48
2016-11-05T01:11:48.746Z,939.5
2016-11-05T01:13:02.328Z,939.5
2016-11-05T01:14:15.996Z,939.49
2016-11-05T01:15:29.528Z,939.48
2016-11-05T01:16:42.361Z,939.46
2016-11-05T01:17:55.378Z,939.45
2016-11-05T01:19:08.955Z,939.48
2016-11-05T01:20:22.432Z,939.49
2016-11-05T01:21:35.992Z,939.47
2016-11-05T01:22:49.068Z,939.44
2016-11-05T01:24:02.191Z,939.47
2016-11-05T01:25:15.593Z,939.47
2016-11-05T01:26:29.266Z,939.5
2016-11-05T01:27:42.826Z,939.47
2016-11-05T01:28:55.943Z,939.46
2016-11-05T01:30:08.685Z,939.44
2016-11-05T01:31:22.272Z,939.39
2016-11-05T01:32:35.383Z,939.39
2016-11-05T01:33:48.968Z,939.42
2016-11-05T01:35:02.497Z,939.39
2016-11-05T01:36:16.078Z,939.36
2016-11-05T01:37:29.236Z,939.34
2016-11-05T01:38:42.850Z,939.32
2016-11-05T01:39:56.460Z,939.32
2016-11-05T01:41:10.044Z,939.29
2016-11-05T01:42:37.598Z,939.33
2016-11-05T01:43:51.190Z,939.32
2016-11-05T01:45:04.787Z,939.29
2016-11-05T01:46:18.616Z,939.27
2016-11-05T01:47:31.686Z,939.28
2016-11-05T01:48:45.185Z,939.25
2016-11-05T01:49:58.846Z,939.25
2016-11-05T01:51:12.428Z,939.2
2016-11-05T01:52:26.129Z,939.24
2016-11-05T01:53:39.202Z,939.2
2016-11-05T01:54:52.204Z,939.2
2016-11-05T01:56:05.289Z,939.23
2016-11-05T01:57:18.908Z,939.17
2016-11-05T01:58:32.479Z,939.14
2016-11-05T01:59:46.108Z,939.16
2016-11-05T02:01:30.250Z,939.15
2016-11-05T02:02:43.801Z,939.12
2016-11-05T02:03:57.350Z,939.1
2016-11-05T02:05:10.385Z,939.07
2016-11-05T02:06:23.462Z,939.1
2016-11-05T02:07:36.225Z,939.08
2016-11-05T02:08:49.268Z,939.07
2016-11-05T02:10:02.541Z,939.09
2016-11-05T02:11:16.093Z,939.08
2016-11-05T02:12:29.692Z,939.03
2016-11-05T02:13:42.830Z,939.03
2016-11-05T02:14:56.470Z,939.05
2016-11-05T02:16:10.055Z,939.05
2016-11-05T02:17:23.581Z,938.99
2016-11-05T02:18:36.174Z,939.02
2016-11-05T02:19:49.776Z,939
2016-11-05T02:21:03.301Z,938.98
2016-11-05T02:22:16.441Z,938.96
2016-11-05T02:23:30.071Z,938.96
2016-11-05T02:24:43.161Z,938.96
2016-11-05T02:25:56.202Z,938.96
2016-11-05T02:27:08.755Z,938.96
2016-11-05T02:28:21.775Z,938.93
2016-11-05T02:29:34.743Z,938.91
2016-11-05T02:30:48.631Z,938.89
2016-11-05T02:32:02.315Z,938.83
2016-11-05T02:33:15.340Z,938.88
2016-11-05T02:34:28.631Z,938.87
2016-11-05T02:35:41.100Z,938.89
2016-11-05T02:36:53.715Z,938.87
2016-11-05T02:38:07.335Z,938.8
2016-11-05T02:39:20.910Z,938.79
2016-11-05T02:40:33.965Z,938.72
2016-11-05T02:42:18.155Z,938.72
2016-11-05T02:43:30.991Z,938.72
2016-11-05T02:44:44.644Z,938.7
2016-11-05T02:45:58.277Z,938.68
2016-11-05T02:47:11.294Z,938.69
2016-11-05T02:48:24.060Z,938.69
2016-11-05T02:49:37.131Z,938.67
2016-11-05T02:50:49.065Z,938.67
2016-11-05T02:52:02.613Z,938.6
2016-11-05T02:53:15.128Z,938.6
2016-11-05T02:54:27.638Z,938.57
2016-11-05T02:55:41.150Z,938.57
2016-11-05T02:56:55.056Z,938.54
2016-11-05T02:58:08.436Z,938.54
2016-11-05T02:59:21.801Z,938.54
2016-11-05T03:00:35.454Z,938.52
2016-11-05T03:01:49.035Z,938.49
2016-11-05T03:03:02.619Z,938.49
2016-11-05T03:04:16.209Z,938.49
2016-11-05T03:05:29.724Z,938.44
2016-11-05T03:06:43.301Z,938.47
2016-11-05T03:07:56.961Z,938.42
2016-11-05T03:09:10.497Z,938.42
2016-11-05T03:10:23.545Z,938.4
2016-11-05T03:11:37.263Z,938.36
2016-11-05T03:12:50.804Z,938.3
2016-11-05T03:14:04.376Z,938.29
2016-11-05T03:15:17.482Z,938.25
2016-11-05T03:16:31.170Z,938.24
2016-11-05T03:17:44.828Z,938.23
2016-11-05T03:18:58.409Z,938.21
2016-11-05T03:20:11.949Z,938.21
2016-11-05T03:21:25.638Z,938.18
2016-11-05T03:22:39.258Z,938.2
2016-11-05T03:23:52.543Z,938.18
2016-11-05T03:25:05.600Z,938.14
2016-11-05T03:26:19.234Z,938.16
2016-11-05T03:27:32.850Z,938.15
2016-11-05T03:28:46.460Z,938.16
2016-11-05T03:29:59.944Z,938.12
2016-11-05T03:31:13.553Z,938.13
2016-11-05T03:32:27.107Z,938.11
2016-11-05T03:33:40.460Z,938.07
2016-11-05T03:34:54.126Z,938.06
2016-11-05T03:36:07.678Z,938.06
2016-11-05T03:37:20.767Z,938.02
2016-11-05T03:38:33.876Z,938.02
2016-11-05T03:39:47.517Z,938
2016-11-05T03:41:01.075Z,937.99
2016-11-05T03:42:14.538Z,937.94
2016-11-05T03:43:28.078Z,937.94
2016-11-05T03:44:41.136Z,937.95
2016-11-05T03:45:54.163Z,937.91
2016-11-05T03:47:07.216Z,937.92
2016-11-05T03:48:20.811Z,937.88
2016-11-05T03:49:34.413Z,937.9
2016-11-05T03:50:48.006Z,937.89
2016-11-05T03:52:01.310Z,937.87
2016-11-05T03:53:14.935Z,937.85
2016-11-05T03:54:28.464Z,937.85
2016-11-05T03:55:42.105Z,937.82
2016-11-05T03:56:55.669Z,937.85
2016-11-05T03:58:08.711Z,937.84
2016-11-05T03:59:22.210Z,937.84
2016-11-05T04:00:34.733Z,937.77
2016-11-05T04:01:48.299Z,937.77
2016-11-05T04:03:01.346Z,937.77
2016-11-05T04:04:14.588Z,937.78
2016-11-05T04:05:28.170Z,937.75
2016-11-05T04:06:41.777Z,937.72
2016-11-05T04:07:55.421Z,937.69
2016-11-05T04:09:08.951Z,937.72
2016-11-05T04:10:22.611Z,937.69
2016-11-05T04:11:36.172Z,937.68
2016-11-05T04:12:49.783Z,937.65
2016-11-05T04:14:03.393Z,937.65
2016-11-05T04:15:16.967Z,937.65
2016-11-05T04:16:30.050Z,937.62
2016-11-05T04:17:43.107Z,937.61
2016-11-05T04:18:56.620Z,937.58
2016-11-05T04:20:10.201Z,937.57
2016-11-05T04:21:22.811Z,937.61
2016-11-05T04:22:36.533Z,937.56
2016-11-05T04:23:49.560Z,937.53
2016-11-05T04:25:03.149Z,937.53
2016-11-05T04:26:16.690Z,937.52
2016-11-05T04:27:30.005Z,937.5
2016-11-05T04:28:43.075Z,937.44
2016-11-05T04:29:56.668Z,937.44
2016-11-05T04:31:10.233Z,937.4
2016-11-05T04:32:54.957Z,937.34
2016-11-05T04:34:07.695Z,937.31
2016-11-05T04:35:21.235Z,937.31
2016-11-05T04:36:34.870Z,937.36
2016-11-05T04:37:48.733Z,937.31
2016-11-05T04:39:02.339Z,937.33
2016-11-05T04:40:15.869Z,937.35
2016-11-05T04:41:29.458Z,937.37
2016-11-05T04:42:43.042Z,937.28
2016-11-05T04:43:56.647Z,937.29
2016-11-05T04:45:10.258Z,937.28
2016-11-05T04:46:23.897Z,937.3
2016-11-05T04:47:37.444Z,937.27
2016-11-05T04:48:49.719Z,937.25
2016-11-05T04:50:03.273Z,937.29
2016-11-05T04:51:16.834Z,937.28
2016-11-05T04:52:30.432Z,937.27
2016-11-05T04:53:43.404Z,937.23
2016-11-05T04:54:56.721Z,937.18
2016-11-05T04:56:10.236Z,937.2
2016-11-05T04:57:23.343Z,937.17
2016-11-05T04:58:36.424Z,937.13
2016-11-05T04:59:49.474Z,937.16
2016-11-05T05:01:02.818Z,937.15
2016-11-05T05:02:16.434Z,937.17
2016-11-05T05:03:30.087Z,937.13
2016-11-05T05:04:43.092Z,937.17
2016-11-05T05:05:56.712Z,937.15
2016-11-05T05:07:10.259Z,937.09
2016-11-05T05:08:23.241Z,937.14
2016-11-05T05:09:36.811Z,937.07
2016-11-05T05:10:50.383Z,937.08
2016-11-05T05:12:03.723Z,937.05
2016-11-05T05:13:16.746Z,937.04
2016-11-05T05:14:29.804Z,937
2016-11-05T05:15:43.405Z,937.01
2016-11-05T05:16:56.922Z,936.98
2016-11-05T05:18:10.386Z,936.98
2016-11-05T05:19:23.985Z,936.97
2016-11-05T05:20:37.147Z,936.99
2016-11-05T05:21:50.662Z,936.98
2016-11-05T05:23:03.697Z,936.99
2016-11-05T05:24:17.272Z,936.98
2016-11-05T05:25:30.832Z,936.98
2016-11-05T05:26:43.882Z,936.97
2016-11-05T05:27:56.946Z,936.96
2016-11-05T05:29:10.044Z,936.97
2016-11-05T05:30:23.622Z,936.97
2016-11-05T05:31:37.202Z,936.96
2016-11-05T05:32:50.770Z,936.92
2016-11-05T05:34:03.782Z,936.91
2016-11-05T05:35:16.792Z,936.87
2016-11-05T05:36:30.483Z,936.84
2016-11-05T05:37:43.546Z,936.83
2016-11-05T05:38:56.577Z,936.81
2016-11-05T05:40:09.596Z,936.84
2016-11-05T05:41:23.272Z,936.8
2016-11-05T05:42:36.833Z,936.81
2016-11-05T05:43:50.353Z,936.82
2016-11-05T05:45:03.937Z,936.79
2016-11-05T05:46:17.558Z,936.75
2016-11-05T05:47:30.831Z,936.72
2016-11-05T05:48:43.929Z,936.75
2016-11-05T05:49:57.032Z,936.71
2016-11-05T05:51:10.568Z,936.67
2016-11-05T05:52:23.564Z,936.69
2016-11-05T05:53:37.177Z,936.67
2016-11-05T05:54:50.680Z,936.65
2016-11-05T05:56:04.197Z,936.62
2016-11-05T05:57:17.736Z,936.64
2016-11-05T05:58:31.348Z,936.63
2016-11-05T05:59:44.621Z,936.62
2016-11-05T06:00:57.894Z,936.63
2016-11-05T06:02:10.475Z,936.68
2016-11-05T06:03:24.068Z,936.67
2016-11-05T06:04:37.714Z,936.68
2016-11-05T06:05:51.008Z,936.66
2016-11-05T06:07:04.078Z,936.66
2016-11-05T06:08:17.584Z,936.7
2016-11-05T06:09:31.166Z,936.69
2016-11-05T06:10:44.860Z,936.68
2016-11-05T06:11:58.493Z,936.69
2016-11-05T06:13:12.141Z,936.68
2016-11-05T06:14:25.821Z,936.67
2016-11-05T06:15:39.078Z,936.69
2016-11-05T06:16:52.106Z,936.68
2016-11-05T06:18:05.691Z,936.68
2016-11-05T06:19:19.314Z,936.69
2016-11-05T06:20:32.974Z,936.68
2016-11-05T06:21:46.499Z,936.68
2016-11-05T06:22:58.951Z,936.69
2016-11-05T06:24:11.964Z,936.66
2016-11-05T06:25:25.529Z,936.67
2016-11-05T06:26:38.542Z,936.64
2016-11-05T06:27:51.579Z,936.66
2016-11-05T06:29:04.592Z,936.64
2016-11-05T06:30:18.135Z,936.67
2016-11-05T06:31:31.160Z,936.72
2016-11-05T06:32:44.239Z,936.7
2016-11-05T06:33:58.025Z,936.73
2016-11-05T06:35:11.072Z,936.74
2016-11-05T06:36:23.569Z,936.73
2016-11-05T06:37:36.641Z,936.75
2016-11-05T06:38:49.765Z,936.74
2016-11-05T06:40:02.865Z,936.71
2016-11-05T06:41:16.498Z,936.71
2016-11-05T06:42:30.140Z,936.73
2016-11-05T06:43:43.226Z,936.73
2016-11-05T06:44:56.814Z,936.72
2016-11-05T06:46:09.957Z,936.72
2016-11-05T06:47:23.213Z,936.72
2016-11-05T06:48:36.815Z,936.72
2016-11-05T06:49:50.464Z,936.74
2016-11-05T06:51:03.808Z,936.76
2016-11-05T06:52:17.365Z,936.77
2016-11-05T06:53:29.608Z,936.82
2016-11-05T06:54:43.196Z,936.8
2016-11-05T06:55:56.779Z,936.76
2016-11-05T06:57:10.392Z,936.77
2016-11-05T06:58:23.716Z,936.77
2016-11-05T06:59:37.294Z,936.78
2016-11-05T07:00:50.927Z,936.77
2016-11-05T07:02:03.398Z,936.79
2016-11-05T07:03:16.932Z,936.84
2016-11-05T07:04:30.554Z,936.77
2016-11-05T07:05:44.150Z,936.79
2016-11-05T07:06:57.676Z,936.82
2016-11-05T07:08:10.722Z,936.85
2016-11-05T07:09:24.023Z,936.81
2016-11-05T07:10:37.560Z,936.82
2016-11-05T07:11:50.637Z,936.82
2016-11-05T07:13:04.276Z,936.86
2016-11-05T07:14:17.874Z,936.86
2016-11-05T07:15:31.454Z,936.86
2016-11-05T07:16:45.028Z,936.86
2016-11-05T07:17:58.077Z,936.84
2016-11-05T07:19:11.606Z,936.86
2016-11-05T07:20:25.159Z,936.83
2016-11-05T07:21:38.760Z,936.92
2016-11-05T07:22:51.928Z,936.92
2016-11-05T07:24:05.494Z,936.89
2016-11-05T07:25:19.070Z,936.9
2016-11-05T07:26:32.105Z,936.9
2016-11-05T07:27:45.820Z,936.92
2016-11-05T07:28:58.853Z,936.9
2016-11-05T07:30:11.868Z,936.89
2016-11-05T07:31:24.896Z,936.89
2016-11-05T07:32:38.037Z,936.89
2016-11-05T07:33:51.056Z,936.85
2016-11-05T07:35:04.608Z,936.87
2016-11-05T07:36:17.625Z,936.87
2016-11-05T07:37:30.635Z,936.91
2016-11-05T07:38:44.266Z,936.89
2016-11-05T07:39:56.788Z,936.88
2016-11-05T07:41:09.832Z,936.89
2016-11-05T07:42:23.458Z,936.85
2016-11-05T07:43:37.069Z,936.85
2016-11-05T07:44:50.166Z,936.89
2016-11-05T07:46:03.700Z,936.89
2016-11-05T07:47:17.014Z,936.88
2016-11-05T07:48:30.667Z,936.85
2016-11-05T07:50:15.334Z,936.9
2016-11-05T07:51:28.899Z,936.86
2016-11-05T07:52:42.557Z,936.9
2016-11-05T07:53:55.655Z,936.87
2016-11-05T07:55:09.206Z,936.86
2016-11-05T07:56:22.872Z,936.86
2016-11-05T07:57:36.428Z,936.83
2016-11-05T07:58:50.075Z,936.81
2016-11-05T08:00:03.695Z,936.82
2016-11-05T08:01:17.273Z,936.8
2016-11-05T08:02:30.307Z,936.8
2016-11-05T08:03:43.395Z,936.81
2016-11-05T08:04:56.897Z,936.84
2016-11-05T08:06:10.562Z,936.84
2016-11-05T08:07:24.350Z,936.84
2016-11-05T08:08:37.901Z,936.86
2016-11-05T08:09:51.491Z,936.86
2016-11-05T08:11:04.611Z,936.85
2016-11-05T08:12:18.235Z,936.84
2016-11-05T08:13:31.770Z,936.9
2016-11-05T08:14:45.341Z,936.91
2016-11-05T08:15:58.925Z,936.91
2016-11-05T08:17:12.469Z,936.94
2016-11-05T08:18:26.011Z,936.95
2016-11-05T08:19:39.611Z,936.95
2016-11-05T08:20:52.078Z,936.94
2016-11-05T08:22:05.603Z,936.94
2016-11-05T08:23:18.811Z,936.96
2016-11-05T08:24:32.436Z,936.97
2016-11-05T08:25:46.042Z,936.95
2016-11-05T08:26:59.659Z,936.95
2016-11-05T08:28:12.983Z,936.97
2016-11-05T08:29:26.008Z,936.96
2016-11-05T08:30:39.571Z,936.95
2016-11-05T08:31:53.190Z,936.94
2016-11-05T08:33:06.753Z,936.95
2016-11-05T08:34:20.405Z,936.96
2016-11-05T08:35:33.442Z,936.91
2016-11-05T08:36:46.969Z,936.91
2016-11-05T08:38:00.579Z,936.94
2016-11-05T08:39:14.167Z,936.9
2016-11-05T08:40:27.238Z,936.91
2016-11-05T08:41:40.815Z,936.92
2016-11-05T08:42:53.912Z,936.91
2016-11-05T08:44:06.399Z,936.91
2016-11-05T08:45:19.162Z,936.92
2016-11-05T08:46:32.784Z,936.93
2016-11-05T08:47:46.496Z,936.95
2016-11-05T08:49:00.093Z,936.95
2016-11-05T08:50:13.772Z,936.95
2016-11-05T08:51:27.308Z,936.94
2016-11-05T08:52:40.879Z,936.97
2016-11-05T08:53:54.345Z,936.95
2016-11-05T08:55:07.391Z,936.95
2016-11-05T08:56:20.979Z,936.94
2016-11-05T08:57:34.632Z,936.93
2016-11-05T08:58:48.258Z,936.95
2016-11-05T09:00:01.878Z,936.95
2016-11-05T09:01:15.477Z,936.97
2016-11-05T09:02:29.048Z,936.97
2016-11-05T09:03:42.589Z,936.98
2016-11-05T09:04:56.178Z,937.03
2016-11-05T09:06:09.257Z,937.05
2016-11-05T09:07:22.877Z,937.04
2016-11-05T09:08:36.456Z,937.05
2016-11-05T09:09:50.035Z,937.13
2016-11-05T09:11:03.585Z,937.13
2016-11-05T09:12:17.139Z,937.13
2016-11-05T09:13:30.752Z,937.19
2016-11-05T09:14:43.866Z,937.24
2016-11-05T09:15:56.402Z,937.21
2016-11-05T09:17:09.966Z,937.24
2016-11-05T09:18:23.552Z,937.31
2016-11-05T09:19:37.174Z,937.31
2016-11-05T09:20:50.219Z,937.29
2016-11-05T09:22:03.702Z,937.38
2016-11-05T09:23:16.772Z,937.38
2016-11-05T09:24:30.353Z,937.36
2016-11-05T09:25:43.955Z,937.38
2016-11-05T09:26:57.584Z,937.38
2016-11-05T09:28:11.190Z,937.41
2016-11-05T09:29:24.202Z,937.41
2016-11-05T09:30:37.288Z,937.39
2016-11-05T09:31:50.832Z,937.38
2016-11-05T09:33:04.372Z,937.42
2016-11-05T09:34:17.904Z,937.42
2016-11-05T09:35:31.163Z,937.44
2016-11-05T09:36:44.769Z,937.44
2016-11-05T09:37:58.361Z,937.46
2016-11-05T09:39:11.906Z,937.47
2016-11-05T09:40:25.493Z,937.49
2016-11-05T09:41:38.534Z,937.49
2016-11-05T09:42:51.736Z,937.51
2016-11-05T09:44:05.331Z,937.49
2016-11-05T09:45:19.014Z,937.56
2016-11-05T09:46:32.655Z,937.54
2016-11-05T09:47:45.856Z,937.54
2016-11-05T09:48:59.155Z,937.53
2016-11-05T09:50:12.746Z,937.55
2016-11-05T09:51:26.366Z,937.53
2016-11-05T09:52:39.434Z,937.56
2016-11-05T09:54:24.172Z,937.56
2016-11-05T09:55:37.790Z,937.6
2016-11-05T09:56:51.143Z,937.56
2016-11-05T09:58:04.242Z,937.62
2016-11-05T09:59:17.835Z,937.62
2016-11-05T10:00:31.459Z,937.62
2016-11-05T10:01:44.766Z,937.64
2016-11-05T10:02:58.376Z,937.6
2016-11-05T10:04:11.940Z,937.64
2016-11-05T10:05:24.978Z,937.65
2016-11-05T10:06:38.005Z,937.66
2016-11-05T10:07:51.567Z,937.65
2016-11-05T10:09:05.181Z,937.65
2016-11-05T10:10:19.019Z,937.72
2016-11-05T10:11:32.643Z,937.65
2016-11-05T10:12:46.165Z,937.67
2016-11-05T10:13:59.760Z,937.66
2016-11-05T10:15:12.772Z,937.68
2016-11-05T10:16:25.869Z,937.71
2016-11-05T10:17:39.499Z,937.7
2016-11-05T10:18:53.068Z,937.69
2016-11-05T10:20:06.730Z,937.72
2016-11-05T10:21:20.279Z,937.71
2016-11-05T10:22:33.429Z,937.75
2016-11-05T10:23:46.918Z,937.76
2016-11-05T10:25:00.466Z,937.8
2016-11-05T10:26:14.106Z,937.82
2016-11-05T10:27:27.671Z,937.85
2016-11-05T10:28:40.708Z,937.86
2016-11-05T10:29:53.747Z,937.87
2016-11-05T10:31:07.294Z,937.9
2016-11-05T10:32:20.353Z,937.89
2016-11-05T10:33:33.855Z,937.89
2016-11-05T10:34:46.847Z,937.88
2016-11-05T10:36:00.425Z,937.89
2016-11-05T10:37:13.489Z,937.87
2016-11-05T10:38:26.797Z,937.87
2016-11-05T10:39:40.436Z,937.89
2016-11-05T10:40:52.975Z,937.9
2016-11-05T10:42:06.536Z,937.92
2016-11-05T10:43:20.082Z,937.92
2016-11-05T10:44:32.816Z,937.94
2016-11-05T10:45:45.290Z,937.91
2016-11-05T10:46:58.851Z,937.91
2016-11-05T10:48:11.967Z,937.92
2016-11-05T10:49:25.561Z,937.88
2016-11-05T10:50:39.129Z,937.88
2016-11-05T10:51:52.256Z,937.94
2016-11-05T10:53:05.805Z,937.96
2016-11-05T10:54:18.882Z,937.96
2016-11-05T10:55:31.399Z,938.03
2016-11-05T10:56:44.940Z,938.01
2016-11-05T10:57:58.560Z,937.99
2016-11-05T10:59:12.138Z,938.01
2016-11-05T11:00:25.212Z,938.01
2016-11-05T11:01:38.073Z,938.04
2016-11-05T11:02:51.608Z,938
2016-11-05T11:04:04.694Z,937.96
2016-11-05T11:05:18.313Z,938.03
2016-11-05T11:06:31.371Z,938.06
2016-11-05T11:07:44.362Z,938.04
2016-11-05T11:08:57.972Z,938.06
2016-11-05T11:10:11.304Z,938.02
2016-11-05T11:11:24.124Z,938.04
2016-11-05T11:12:36.644Z,938.07
2016-11-05T11:13:49.770Z,938.11
2016-11-05T11:15:03.422Z,938.11
2016-11-05T11:16:16.443Z,938.16
2016-11-05T11:17:30.022Z,938.17
2016-11-05T11:18:43.641Z,938.18
2016-11-05T11:19:57.218Z,938.22
2016-11-05T11:21:10.534Z,938.23
2016-11-05T11:22:23.563Z,938.21
2016-11-05T11:23:36.866Z,938.2
2016-11-05T11:24:50.564Z,938.23
2016-11-05T11:26:03.643Z,938.23
2016-11-05T11:27:17.169Z,938.26
2016-11-05T11:28:30.697Z,938.24
2016-11-05T11:29:43.773Z,938.22
2016-11-05T11:30:57.436Z,938.22
2016-11-05T11:32:11.014Z,938.27
2016-11-05T11:33:24.018Z,938.25
2016-11-05T11:36:22.305Z,938.25
2016-11-05T11:37:35.902Z,938.27
2016-11-05T11:38:49.222Z,938.26
2016-11-05T11:40:02.783Z,938.29
2016-11-05T11:41:15.571Z,938.33
2016-11-05T11:42:29.117Z,938.36
2016-11-05T11:43:42.756Z,938.3
2016-11-05T11:44:56.435Z,938.4
2016-11-05T11:46:10.011Z,938.36
2016-11-05T11:47:23.643Z,938.38
2016-11-05T11:48:37.248Z,938.44
2016-11-05T11:49:50.847Z,938.42
2016-11-05T11:51:04.553Z,938.41
2016-11-05T11:52:17.917Z,938.45
2016-11-05T11:53:31.510Z,938.42
2016-11-05T11:54:44.508Z,938.45
2016-11-05T11:55:58.169Z,938.46
2016-11-05T11:57:11.844Z,938.47
2016-11-05T11:58:24.899Z,938.44
2016-11-05T11:59:37.964Z,938.44
2016-11-05T12:00:51.546Z,938.43
2016-11-05T12:02:04.893Z,938.41
2016-11-05T12:03:18.185Z,938.39
2016-11-05T12:04:31.835Z,938.36
2016-11-05T12:05:45.368Z,938.37
2016-11-05T12:06:58.888Z,938.38
2016-11-05T12:08:12.499Z,938.39
2016-11-05T12:09:26.522Z,938.41
2016-11-05T12:10:40.142Z,938.44
2016-11-05T12:11:53.210Z,938.42
2016-11-05T12:13:06.257Z,938.41
2016-11-05T12:14:19.839Z,938.38
2016-11-05T12:15:33.412Z,938.42
2016-11-05T12:16:46.691Z,938.41
2016-11-05T12:17:59.488Z,938.38
2016-11-05T12:19:12.988Z,938.35
2016-11-05T12:20:26.034Z,938.33
2016-11-05T12:21:39.657Z,938.33
2016-11-05T12:22:53.209Z,938.33
2016-11-05T12:24:06.857Z,938.33
2016-11-05T12:25:20.430Z,938.34
2016-11-05T12:27:05.130Z,938.28
2016-11-05T12:28:18.681Z,938.34
2016-11-05T12:29:31.658Z,938.36
2016-11-05T12:30:45.284Z,938.38
2016-11-05T12:31:58.781Z,938.35
2016-11-05T12:33:12.309Z,938.36
2016-11-05T12:34:25.924Z,938.31
2016-11-05T12:35:39.501Z,938.32
2016-11-05T12:36:52.497Z,938.3
2016-11-05T12:38:06.097Z,938.3
2016-11-05T12:39:19.722Z,938.32
2016-11-05T12:40:33.266Z,938.27
2016-11-05T12:41:46.782Z,938.31
2016-11-05T12:42:59.779Z,938.32
2016-11-05T12:44:12.837Z,938.31
2016-11-05T12:45:26.394Z,938.28
2016-11-05T12:46:40.031Z,938.3
2016-11-05T12:47:53.657Z,938.27
2016-11-05T12:49:38.363Z,938.31
2016-11-05T12:50:52.258Z,938.32
2016-11-05T12:52:05.019Z,938.35
2016-11-05T12:53:18.590Z,938.4
2016-11-05T12:54:31.663Z,938.39
2016-11-05T12:55:44.933Z,938.31
2016-11-05T12:56:58.505Z,938.33
2016-11-05T12:58:12.125Z,938.3
2016-11-05T12:59:25.733Z,938.33
2016-11-05T13:00:39.397Z,938.28
2016-11-05T13:01:52.932Z,938.31
2016-11-05T13:03:06.057Z,938.31
2016-11-05T13:04:19.104Z,938.32
2016-11-05T13:05:32.698Z,938.29
2016-11-05T13:06:46.238Z,938.28
2016-11-05T13:07:59.352Z,938.21
2016-11-05T13:09:12.389Z,938.23
2016-11-05T13:10:25.999Z,938.22
2016-11-05T13:11:39.624Z,938.18
2016-11-05T13:12:53.252Z,938.15
2016-11-05T13:14:06.816Z,938.17
2016-11-05T13:15:20.537Z,938.11
2016-11-05T13:16:33.688Z,938.1
2016-11-05T13:17:46.729Z,938.12
2016-11-05T13:19:00.202Z,938.09
2016-11-05T13:20:13.743Z,938.09
2016-11-05T13:21:27.266Z,938.06
2016-11-05T13:22:40.529Z,938.1
2016-11-05T13:23:53.244Z,938.09
2016-11-05T13:25:06.044Z,938.08
2016-11-05T13:26:19.657Z,938.07
2016-11-05T13:27:33.187Z,938.07
2016-11-05T13:28:46.739Z,938.06
2016-11-05T13:29:59.780Z,938.02
2016-11-05T13:31:12.740Z,938.06
2016-11-05T13:32:25.830Z,938.05
2016-11-05T13:33:39.437Z,937.99
2016-11-05T13:34:53.081Z,937.99
2016-11-05T13:36:06.666Z,937.93
2016-11-05T13:37:20.195Z,937.93
2016-11-05T13:38:33.820Z,937.94
2016-11-05T13:39:47.402Z,937.91
2016-11-05T13:40:59.936Z,937.88
2016-11-05T13:42:13.518Z,937.89
2016-11-05T13:43:26.606Z,937.87
2016-11-05T13:44:39.686Z,937.85
2016-11-05T13:45:53.340Z,937.82
2016-11-05T13:47:06.393Z,937.82
2016-11-05T13:48:19.476Z,937.84
2016-11-05T13:49:32.564Z,937.84
2016-11-05T13:50:46.157Z,937.83
2016-11-05T13:51:58.200Z,937.79
2016-11-05T13:53:11.236Z,937.84
2016-11-05T13:54:24.792Z,937.78
2016-11-05T13:56:09.463Z,937.8
2016-11-05T13:57:22.573Z,937.77
2016-11-05T13:58:36.191Z,937.76
2016-11-05T13:59:49.754Z,937.77
2016-11-05T14:01:03.372Z,937.72
2016-11-05T14:02:16.911Z,937.7
2016-11-05T14:03:30.476Z,937.76
2016-11-05T14:04:44.199Z,937.71
2016-11-05T14:05:57.746Z,937.69
2016-11-05T14:07:11.192Z,937.7
2016-11-05T14:08:24.359Z,937.67
2016-11-05T14:09:37.963Z,937.67
2016-11-05T14:10:51.546Z,937.62
2016-11-05T14:12:05.112Z,937.6
2016-11-05T14:13:18.153Z,937.62
2016-11-05T14:14:31.764Z,937.6
2016-11-05T14:16:16.445Z,937.61
2016-11-05T14:17:30.144Z,937.58
2016-11-05T14:18:43.685Z,937.63
2016-11-05T14:19:56.988Z,937.59
2016-11-05T14:21:10.509Z,937.56
2016-11-05T14:22:24.051Z,937.58
2016-11-05T14:23:37.700Z,937.54
2016-11-05T14:24:51.004Z,937.54
2016-11-05T14:26:04.298Z,937.56
2016-11-05T14:27:17.990Z,937.57
2016-11-05T14:28:31.590Z,937.56
2016-11-05T14:29:44.925Z,937.55
2016-11-05T14:30:58.475Z,937.49
2016-11-05T14:32:12.026Z,937.47
2016-11-05T14:33:24.915Z,937.47
2016-11-05T14:34:37.956Z,937.47
2016-11-05T14:35:51.553Z,937.44
2016-11-05T14:37:05.193Z,937.46
2016-11-05T14:38:18.232Z,937.4
2016-11-05T14:39:31.803Z,937.43
2016-11-05T14:40:45.377Z,937.41
2016-11-05T14:41:58.444Z,937.37
2016-11-05T14:43:12.029Z,937.41
2016-11-05T14:44:25.560Z,937.44
2016-11-05T14:45:39.142Z,937.45
2016-11-05T14:46:52.813Z,937.45
2016-11-05T14:48:06.151Z,937.45
2016-11-05T14:49:19.737Z,937.43
2016-11-05T14:50:33.459Z,937.41
2016-11-05T14:51:47.063Z,937.41
2016-11-05T14:52:59.885Z,937.33
2016-11-05T14:54:13.023Z,937.41
2016-11-05T14:55:26.577Z,937.39
2016-11-05T14:56:40.193Z,937.38
2016-11-05T14:58:24.893Z,937.32
2016-11-05T14:59:37.976Z,937.39
2016-11-05T15:00:51.565Z,937.35
2016-11-05T15:02:05.138Z,937.31
2016-11-05T15:03:18.737Z,937.32
2016-11-05T15:04:31.782Z,937.35
2016-11-05T15:05:45.387Z,937.31
2016-11-05T15:06:58.431Z,937.28
2016-11-05T15:08:11.567Z,937.2
2016-11-05T15:09:25.235Z,937.24
2016-11-05T15:10:38.026Z,937.24
2016-11-05T15:11:51.077Z,937.24
2016-11-05T15:13:04.695Z,937.26
2016-11-05T15:14:18.281Z,937.24
2016-11-05T15:15:31.829Z,937.22
2016-11-05T15:16:45.448Z,937.28
2016-11-05T15:17:59.039Z,937.26
2016-11-05T15:19:11.838Z,937.22
2016-11-05T15:20:25.527Z,937.21
2016-11-05T15:21:38.583Z,937.25
2016-11-05T15:22:52.231Z,937.23
2016-11-05T15:24:05.858Z,937.21
2016-11-05T15:25:19.496Z,937.19